Time;durP1;ratioP1;P1;durP2;ratioP2;P2;SDS_P1;SDS_P2;PMS_P1;PMS_P2;Temp;Humidity;BMP_temperature;BMP_pressure;BME280_temperature;BME280_humidity;BME280_pressure;Samples;Min_cycle;Max_cycle;Signal;HPM_P1;HPM_P2
2022/03/31 00:00:40;;;;;;;;;;;;;;;9.71;90.91;98220.94;5032724;28;19921;-81
2022/03/31 00:03:06;;;;;;;;;;;;;;;9.69;91.05;98220.66;5031684;28;19940;-81
2022/03/31 00:05:32;;;;;;;;;;;;;;;9.67;91.83;98217.59;5032544;28;19925;-81
2022/03/31 00:07:58;;;;;;;;;;;;;;;9.67;92.25;98210.03;5032449;28;19936;-81
2022/03/31 00:10:24;;;;;;;;;;;;;;;9.64;92.41;98210.22;5032712;28;19920;-80
2022/03/31 00:12:50;;;;;;;;;;;;;;;9.62;92.99;98210.72;5030651;28;20004;-81
2022/03/31 00:15:16;;;;;;;;;;;;;;;9.65;92.75;98217.31;5032085;28;19967;-81
2022/03/31 00:17:41;;;;;;;;;;;;;;;9.65;93.38;98218.06;5031780;28;19925;-81
2022/03/31 00:20:07;;;;;;;;;;;;;;;9.63;94.20;98219.75;5032105;28;19928;-81
2022/03/31 00:22:32;;;;;;;;;;;;;;;9.67;93.90;98209.28;5032651;28;19929;-81
2022/03/31 00:24:58;;;;;;;;;;;;;;;9.68;93.98;98196.97;5031131;28;19929;-81
2022/03/31 00:27:23;;;;;;;;;;;;;;;9.71;94.09;98196.00;5031901;28;19921;-81
2022/03/31 00:29:48;;;;;;;;;;;;;;;9.68;94.49;98196.97;5033172;28;19921;-81
2022/03/31 00:32:14;;;;;;;;;;;;;;;9.68;94.49;98191.44;5031932;28;20390;-81
2022/03/31 00:34:39;;;;;;;;;;;;;;;9.66;94.98;98186.38;5031911;28;19935;-81
2022/03/31 00:37:05;;;;;;;;;;;;;;;9.69;95.88;98184.66;5032104;28;20283;-80
2022/03/31 00:39:33;;;;;;;;;;;;;;;9.70;96.74;98180.66;5032101;28;19921;-81
2022/03/31 00:41:59;;;;;;;;;;;;;;;9.69;98.19;98182.66;5018776;28;20641;-81
2022/03/31 00:44:25;;;;;;;;;;;;;;;9.64;99.79;98182.56;5032282;28;19927;-81
2022/03/31 00:46:51;;;;;;;;;;;;;;;9.61;100.00;98166.91;5031587;28;20311;-81
2022/03/31 00:49:16;;;;;;;;;;;;;;;9.60;100.00;98179.19;5039233;28;20014;-81
2022/03/31 00:51:42;;;;;;;;;;;;;;;9.59;100.00;98169.38;5044355;28;20382;-81
2022/03/31 00:54:07;;;;;;;;;;;;;;;9.58;100.00;98176.16;5043733;28;19929;-81
2022/03/31 00:56:33;;;;;;;;;;;;;;;9.57;100.00;98169.09;5046035;28;19921;-82
2022/03/31 00:58:58;;;;;;;;;;;;;;;9.51;100.00;98163.44;5041311;28;19925;-81
2022/03/31 01:04:06;;;;;;;;;;;;;;;9.57;100.00;98149.72;5110643;22;19972;-86
2022/03/31 01:06:31;;;;;;;;;;;;;;;9.59;100.00;98148.00;5013569;28;19968;-87
2022/03/31 01:08:57;;;;;;;;;;;;;;;9.55;100.00;98152.94;5002156;28;19921;-87
2022/03/31 01:11:23;;;;;;;;;;;;;;;9.52;100.00;98145.59;5016173;28;19924;-86
2022/03/31 01:13:48;;;;;;;;;;;;;;;9.51;100.00;98146.06;5016518;28;20427;-87
2022/03/31 01:16:14;;;;;;;;;;;;;;;9.46;100.00;98143.97;5016677;28;20335;-87
2022/03/31 01:18:40;;;;;;;;;;;;;;;9.43;100.00;98144.91;5016140;28;20284;-87
2022/03/31 01:21:05;;;;;;;;;;;;;;;9.41;100.00;98142.63;5027244;28;20007;-86
2022/03/31 01:23:31;;;;;;;;;;;;;;;9.37;100.00;98142.06;5000793;28;20367;-86
2022/03/31 01:25:57;;;;;;;;;;;;;;;9.38;100.00;98137.28;5016621;28;19928;-87
2022/03/31 01:28:22;;;;;;;;;;;;;;;9.34;100.00;98132.69;5033104;28;19927;-87
2022/03/31 01:30:47;;;;;;;;;;;;;;;9.34;100.00;98127.16;5032609;28;20342;-87
2022/03/31 01:33:14;;;;;;;;;;;;;;;9.34;100.00;98127.16;5048050;28;20015;-87
2022/03/31 01:35:40;;;;;;;;;;;;;;;9.35;100.00;98128.69;5017834;28;19921;-87
2022/03/31 01:38:06;;;;;;;;;;;;;;;9.33;100.00;98128.41;5016394;28;20003;-87
2022/03/31 01:40:31;;;;;;;;;;;;;;;9.35;100.00;98123.16;5028255;28;20012;-87
2022/03/31 01:42:57;;;;;;;;;;;;;;;9.38;100.00;98128.97;5032682;28;19921;-87
2022/03/31 01:45:22;;;;;;;;;;;;;;;9.36;100.00;98121.91;5015759;28;19952;-87
2022/03/31 01:47:47;;;;;;;;;;;;;;;9.40;100.00;98118.19;5031990;28;19929;-87
2022/03/31 01:50:13;;;;;;;;;;;;;;;9.42;100.00;98115.72;5012008;28;19929;-87
2022/03/31 01:52:39;;;;;;;;;;;;;;;9.47;100.00;98115.03;5031137;28;19925;-86
2022/03/31 01:55:07;;;;;;;;;;;;;;;9.46;100.00;98108.78;5032902;28;20319;-87
2022/03/31 01:57:33;;;;;;;;;;;;;;;9.45;100.00;98103.69;5032131;28;19921;-87
2022/03/31 02:00:02;;;;;;;;;;;;;;;9.46;100.00;98105.22;5015416;28;19921;-87
2022/03/31 02:02:39;;;;;;;;;;;;;;;9.48;100.00;98097.19;5027847;28;19925;-87
2022/03/31 02:05:04;;;;;;;;;;;;;;;9.47;100.00;98101.19;5033159;28;20023;-87
2022/03/31 02:07:30;;;;;;;;;;;;;;;9.50;100.00;98100.28;5032139;28;20471;-87
2022/03/31 02:09:55;;;;;;;;;;;;;;;9.53;100.00;98093.78;5031197;28;19943;-85
2022/03/31 02:12:21;;;;;;;;;;;;;;;9.56;100.00;98095.59;5008406;28;20469;-87
2022/03/31 02:14:47;;;;;;;;;;;;;;;9.59;100.00;98097.41;5032350;28;20295;-87
2022/03/31 02:17:13;;;;;;;;;;;;;;;9.61;100.00;98094.94;5016218;28;19921;-87
2022/03/31 02:19:38;;;;;;;;;;;;;;;9.63;100.00;98081.34;5008722;28;19927;-87
2022/03/31 02:22:04;;;;;;;;;;;;;;;9.65;100.00;98089.97;5032782;28;19920;-87
2022/03/31 02:24:30;;;;;;;;;;;;;;;9.63;100.00;98086.91;5014650;28;19931;-86
2022/03/31 02:26:55;;;;;;;;;;;;;;;9.64;100.00;98082.91;5012595;28;19974;-87
2022/03/31 02:29:21;;;;;;;;;;;;;;;9.65;100.00;98078.88;5015259;28;19921;-87
2022/03/31 02:31:46;;;;;;;;;;;;;;;9.63;100.00;98086.91;5031556;28;19921;-87
2022/03/31 02:34:12;;;;;;;;;;;;;;;9.60;100.00;98074.03;5014886;28;20277;-87
2022/03/31 02:36:38;;;;;;;;;;;;;;;9.63;100.00;98071.06;5015864;28;20296;-87
2022/03/31 02:39:04;;;;;;;;;;;;;;;9.62;100.00;98063.25;5031262;28;19947;-86
2022/03/31 02:41:29;;;;;;;;;;;;;;;9.68;100.00;98061.31;5031628;28;19924;-87
2022/03/31 02:43:54;;;;;;;;;;;;;;;9.71;100.00;98060.34;5031409;28;19929;-87
2022/03/31 02:46:20;;;;;;;;;;;;;;;9.71;100.00;98049.28;5028931;28;19921;-87
2022/03/31 02:48:45;;;;;;;;;;;;;;;9.73;100.00;98046.81;5034724;28;20336;-87
2022/03/31 02:51:11;;;;;;;;;;;;;;;9.74;100.00;98051.13;5018711;28;19928;-87
2022/03/31 02:56:20;;;;;;;;;;;;;;;9.77;100.00;98041.84;5031784;28;19927;-87
2022/03/31 02:58:46;;;;;;;;;;;;;;;9.81;100.00;98036.88;5017508;28;19921;-86
2022/03/31 03:01:11;;;;;;;;;;;;;;;9.81;100.00;98025.78;5031406;28;19947;-87
2022/03/31 03:03:37;;;;;;;;;;;;;;;9.84;100.00;98022.06;5017570;28;19940;-86
2022/03/31 03:06:02;;;;;;;;;;;;;;;9.82;100.00;98021.78;5029637;28;20058;-87
2022/03/31 03:08:28;;;;;;;;;;;;;;;9.84;100.00;98024.81;5019159;28;19979;-86
2022/03/31 03:10:54;;;;;;;;;;;;;;;9.86;100.00;98022.34;5028951;28;20288;-86
2022/03/31 03:13:19;;;;;;;;;;;;;;;9.87;100.00;98012.03;5031268;28;19921;-86
2022/03/31 03:15:45;;;;;;;;;;;;;;;9.85;100.00;98018.06;5019100;28;19927;-87
2022/03/31 03:18:11;;;;;;;;;;;;;;;9.91;100.00;98007.06;5018107;28;19925;-85
2022/03/31 03:20:36;;;;;;;;;;;;;;;9.93;100.00;98005.34;5017552;28;20008;-87
2022/03/31 03:23:01;;;;;;;;;;;;;;;9.89;100.00;98004.78;5034531;28;19927;-86
2022/03/31 03:25:27;;;;;;;;;;;;;;;9.93;100.00;98005.34;5032884;28;19944;-88
2022/03/31 03:27:52;;;;;;;;;;;;;;;9.95;100.00;98000.06;5034811;28;19925;-87
2022/03/31 03:30:18;;;;;;;;;;;;;;;9.92;100.00;98001.03;5035101;28;19924;-87
2022/03/31 03:32:45;;;;;;;;;;;;;;;9.93;100.00;97988.72;5012112;28;19928;-86
2022/03/31 03:35:11;;;;;;;;;;;;;;;9.94;100.00;97989.47;5017356;28;20624;-87
2022/03/31 03:37:36;;;;;;;;;;;;;;;9.87;100.00;97990.63;5035336;28;19978;-87
2022/03/31 03:40:03;;;;;;;;;;;;;;;9.89;100.00;97987.38;5039714;28;19921;-87
2022/03/31 03:42:29;;;;;;;;;;;;;;;9.86;100.00;97986.34;5025550;28;19920;-87
2022/03/31 03:44:54;;;;;;;;;;;;;;;9.82;100.00;97989.34;5039214;28;19921;-87
2022/03/31 03:47:20;;;;;;;;;;;;;;;9.80;100.00;97985.50;5038258;28;19939;-86
2022/03/31 03:49:45;;;;;;;;;;;;;;;9.81;100.00;97987.78;5037203;28;19924;-88
2022/03/31 03:52:11;;;;;;;;;;;;;;;9.77;100.00;97980.94;5034794;28;19924;-87
2022/03/31 03:54:36;;;;;;;;;;;;;;;9.79;100.00;97989.50;5016852;28;19921;-87
2022/03/31 03:57:02;;;;;;;;;;;;;;;9.82;100.00;97974.72;5017068;28;20386;-86
2022/03/31 03:59:28;;;;;;;;;;;;;;;9.83;100.00;97990.06;5029238;28;19925;-86
2022/03/31 04:01:54;;;;;;;;;;;;;;;9.85;100.00;97982.06;5014084;28;19920;-87
2022/03/31 04:04:19;;;;;;;;;;;;;;;9.85;100.00;97987.59;5031334;28;19932;-87
2022/03/31 04:06:44;;;;;;;;;;;;;;;9.84;100.00;97983.28;5027889;28;19955;-86
2022/03/31 04:09:10;;;;;;;;;;;;;;;9.84;100.00;97986.06;5008871;28;20300;-87
2022/03/31 04:11:35;;;;;;;;;;;;;;;9.83;100.00;97984.53;5007772;28;19925;-87
2022/03/31 04:14:01;;;;;;;;;;;;;;;9.86;100.00;97983.59;5034420;28;19921;-87
2022/03/31 04:16:26;;;;;;;;;;;;;;;9.84;100.00;97981.28;5032445;28;19920;-88
2022/03/31 04:18:52;;;;;;;;;;;;;;;9.84;100.00;97986.06;5029529;28;19921;-87
2022/03/31 04:21:17;;;;;;;;;;;;;;;9.77;100.00;97987.22;5033055;28;19939;-87
2022/03/31 04:23:43;;;;;;;;;;;;;;;9.71;100.00;97982.84;5026020;28;20007;-87
2022/03/31 04:26:08;;;;;;;;;;;;;;;9.71;100.00;97993.91;4993406;28;20381;-87
2022/03/31 04:28:34;;;;;;;;;;;;;;;9.71;100.00;97982.84;5007437;28;20347;-87
2022/03/31 04:30:59;;;;;;;;;;;;;;;9.69;100.00;97991.63;5033301;28;19921;-87
2022/03/31 04:33:26;;;;;;;;;;;;;;;9.64;100.00;97988.78;5015250;28;19920;-87
2022/03/31 04:35:51;;;;;;;;;;;;;;;9.61;100.00;97990.50;5029123;28;20031;-88
2022/03/31 04:38:17;;;;;;;;;;;;;;;9.55;100.00;97980.56;5007397;28;20411;-87
2022/03/31 04:40:42;;;;;;;;;;;;;;;9.58;100.00;97985.94;5032635;28;19968;-87
2022/03/31 04:43:08;;;;;;;;;;;;;;;9.58;100.00;97985.94;5013482;28;19972;-87
2022/03/31 04:45:33;;;;;;;;;;;;;;;9.53;100.00;97986.59;5027978;28;20078;-89
2022/03/31 04:47:58;;;;;;;;;;;;;;;9.51;100.00;97982.78;5030683;28;19924;-86
2022/03/31 04:50:24;;;;;;;;;;;;;;;9.52;100.00;97976.00;5033605;28;20390;-87
2022/03/31 04:52:49;;;;;;;;;;;;;;;9.48;100.00;97978.22;5033810;28;19924;-89
2022/03/31 04:55:14;;;;;;;;;;;;;;;9.48;100.00;97973.44;5009123;28;19924;-88
2022/03/31 04:57:40;;;;;;;;;;;;;;;9.49;100.00;97974.19;5036677;28;19943;-87
2022/03/31 05:00:06;;;;;;;;;;;;;;;9.53;100.00;97975.53;5028986;28;19921;-89
2022/03/31 05:02:31;;;;;;;;;;;;;;;9.49;100.00;97972.19;5045933;28;21439;-89
2022/03/31 05:04:56;;;;;;;;;;;;;;;9.56;100.00;97971.81;5006986;28;20020;-90
2022/03/31 05:07:22;;;;;;;;;;;;;;;9.60;100.00;97966.84;5010412;28;20375;-90
2022/03/31 05:09:48;;;;;;;;;;;;;;;9.63;100.00;97970.63;5008415;28;20397;-90
2022/03/31 05:12:13;;;;;;;;;;;;;;;9.67;100.00;97971.19;5020161;28;19931;-91
2022/03/31 05:14:39;;;;;;;;;;;;;;;9.70;100.00;97973.03;5028615;28;19924;-90
2022/03/31 05:17:05;;;;;;;;;;;;;;;9.68;100.00;97969.97;5016312;28;19942;-91
2022/03/31 05:19:31;;;;;;;;;;;;;;;9.74;100.00;97976.38;5021655;28;19920;-90
2022/03/31 05:21:56;;;;;;;;;;;;;;;9.76;100.00;97985.69;5013450;28;20298;-91
2022/03/31 05:24:23;;;;;;;;;;;;;;;9.77;100.00;97992.00;5014803;28;20465;-91
2022/03/31 05:26:52;;;;;;;;;;;;;;;9.71;100.00;97982.84;5033851;28;19962;-92
2022/03/31 05:29:18;;;;;;;;;;;;;;;9.65;100.00;97982.00;5001944;28;20527;-93
2022/03/31 05:31:43;;;;;;;;;;;;;;;9.61;100.00;97984.22;5017358;28;20372;-93
2022/03/31 05:34:08;;;;;;;;;;;;;;;9.64;100.00;97980.47;5033437;28;19971;-95
2022/03/31 05:36:34;;;;;;;;;;;;;;;9.64;100.00;97978.47;5007536;28;19921;-92
2022/03/31 05:38:59;;;;;;;;;;;;;;;9.60;100.00;97971.59;5026695;28;19925;-93
2022/03/31 05:41:25;;;;;;;;;;;;;;;9.51;100.00;97978.00;5035000;28;19921;-95
2022/03/31 05:43:50;;;;;;;;;;;;;;;9.41;100.00;97981.38;5051593;28;19962;-93
2022/03/31 05:46:15;;;;;;;;;;;;;;;9.33;100.00;97981.75;5033168;28;19948;-94
2022/03/31 05:48:41;;;;;;;;;;;;;;;9.30;100.00;97974.41;5032187;28;19920;-92
2022/03/31 05:51:07;;;;;;;;;;;;;;;9.34;100.00;97982.53;5034443;28;20380;-88
2022/03/31 05:53:32;;;;;;;;;;;;;;;9.30;100.00;97982.69;5018994;28;19943;-94
2022/03/31 05:55:58;;;;;;;;;;;;;;;9.30;100.00;97977.16;5031473;28;19928;-95
2022/03/31 05:58:24;;;;;;;;;;;;;;;9.36;100.00;97974.50;5040835;28;19904;-95
2022/03/31 06:00:52;;;;;;;;;;;;;;;9.37;100.00;97981.56;5026711;28;19978;-96
2022/03/31 06:03:21;;;;;;;;;;;;;;;9.36;100.00;97975.28;5049809;28;19928;-96
2022/03/31 06:05:46;;;;;;;;;;;;;;;9.37;100.00;97973.28;5037000;28;19921;-95
2022/03/31 06:08:12;;;;;;;;;;;;;;;9.44;100.00;97961.81;5052187;28;19917;-96
2022/03/31 06:10:38;;;;;;;;;;;;;;;9.52;100.00;97976.00;5036177;28;19927;-96
2022/03/31 06:13:03;;;;;;;;;;;;;;;9.57;100.00;97972.56;5036690;28;20011;-95
2022/03/31 06:15:29;;;;;;;;;;;;;;;9.66;100.00;97961.38;5051418;28;19955;-96
2022/03/31 06:17:54;;;;;;;;;;;;;;;9.72;100.00;97960.22;5030082;28;19917;-95
2022/03/31 06:20:20;;;;;;;;;;;;;;;9.78;100.00;97957.53;5047765;28;19975;-96
2022/03/31 06:22:45;;;;;;;;;;;;;;;9.79;100.00;97959.03;5013919;28;19924;-96
2022/03/31 06:25:11;;;;;;;;;;;;;;;9.82;100.00;97961.63;5003937;28;20000;-94
2022/03/31 06:27:37;;;;;;;;;;;;;;;9.84;100.00;97953.59;5035527;28;19999;-96
2022/03/31 06:30:03;;;;;;;;;;;;;;;9.88;100.00;97958.16;5039258;28;19921;-95
2022/03/31 06:32:28;;;;;;;;;;;;;;;9.91;100.00;97963.50;5052123;28;19921;-96
2022/03/31 06:34:53;;;;;;;;;;;;;;;9.93;100.00;97963.78;5045807;28;19925;-94
2022/03/31 06:37:20;;;;;;;;;;;;;;;9.92;100.00;97951.19;5062782;28;19924;-94
2022/03/31 06:39:46;;;;;;;;;;;;;;;9.94;100.00;97940.41;5057759;28;19921;-93
2022/03/31 06:42:11;;;;;;;;;;;;;;;9.96;100.00;97948.97;5029853;28;19924;-93
2022/03/31 06:44:37;;;;;;;;;;;;;;;9.92;100.00;97948.41;5040388;28;19920;-93
2022/03/31 06:47:02;;;;;;;;;;;;;;;9.89;100.00;97943.84;5031077;28;19928;-92
2022/03/31 06:49:28;;;;;;;;;;;;;;;9.92;100.00;97959.50;5029741;28;19927;-90
2022/03/31 06:51:53;;;;;;;;;;;;;;;9.94;100.00;97961.78;5034501;28;19920;-93
2022/03/31 06:54:19;;;;;;;;;;;;;;;9.95;100.00;97958.53;5027293;28;19975;-92
2022/03/31 06:56:44;;;;;;;;;;;;;;;9.95;100.00;97958.53;5025844;28;20303;-92
2022/03/31 06:59:09;;;;;;;;;;;;;;;9.93;100.00;97954.72;5015016;28;19922;-94
2022/03/31 07:01:35;;;;;;;;;;;;;;;9.97;100.00;97958.03;5023675;28;19943;-93
2022/03/31 07:04:00;;;;;;;;;;;;;;;10.00;100.00;97937.69;5048080;28;19920;-93
2022/03/31 07:06:26;;;;;;;;;;;;;;;9.98;100.00;97945.72;5031602;28;20058;-94
2022/03/31 07:08:51;;;;;;;;;;;;;;;10.02;100.00;97935.97;5017573;28;19921;-92
2022/03/31 07:11:17;;;;;;;;;;;;;;;10.04;100.00;97929.94;5011179;28;19929;-90
2022/03/31 07:13:47;;;;;;;;;;;;;;;10.02;100.00;97937.97;5007146;28;19974;-91
2022/03/31 07:16:12;;;;;;;;;;;;;;;10.01;100.00;97933.69;5023520;28;19932;-90
2022/03/31 07:18:38;;;;;;;;;;;;;;;10.04;100.00;97933.47;5028898;28;19928;-94
2022/03/31 07:21:03;;;;;;;;;;;;;;;10.09;100.00;97924.47;5045131;28;19920;-93
2022/03/31 07:23:28;;;;;;;;;;;;;;;10.10;100.00;97926.00;5003431;28;19967;-93
2022/03/31 07:25:54;;;;;;;;;;;;;;;10.12;100.00;97923.50;5017741;28;20032;-94
2022/03/31 07:28:21;;;;;;;;;;;;;;;10.09;100.00;97918.16;5000708;28;19948;-93
2022/03/31 07:30:47;;;;;;;;;;;;;;;10.11;100.00;97910.88;5018719;28;19928;-94
2022/03/31 07:33:12;;;;;;;;;;;;;;;10.16;100.00;97907.47;5042358;28;19923;-93
2022/03/31 07:35:38;;;;;;;;;;;;;;;10.14;100.00;97903.63;5018939;28;19925;-93
2022/03/31 07:38:04;;;;;;;;;;;;;;;10.14;100.00;97911.94;5035340;28;19924;-93
2022/03/31 07:40:30;;;;;;;;;;;;;;;10.12;100.00;97909.66;5004139;28;19921;-92
2022/03/31 07:42:55;;;;;;;;;;;;;;;10.12;100.00;97911.66;5019923;28;19928;-92
2022/03/31 07:45:21;;;;;;;;;;;;;;;10.08;100.00;97917.41;5011655;28;19925;-92
2022/03/31 07:47:47;;;;;;;;;;;;;;;10.04;100.00;97905.78;5031439;28;19971;-92
2022/03/31 07:50:13;;;;;;;;;;;;;;;10.08;100.00;97906.31;5031660;28;19922;-92
2022/03/31 07:52:39;;;;;;;;;;;;;;;10.12;100.00;97903.34;5023314;28;20395;-91
2022/03/31 07:55:06;;;;;;;;;;;;;;;10.18;100.00;97901.44;5029013;28;19921;-90
2022/03/31 07:57:32;;;;;;;;;;;;;;;10.19;100.00;97894.66;5030886;28;19932;-87
2022/03/31 07:59:57;;;;;;;;;;;;;;;10.18;100.00;97893.91;5032841;28;19920;-90
2022/03/31 08:02:25;;;;;;;;;;;;;;;10.22;100.00;97894.44;5033186;28;19921;-87
2022/03/31 08:04:51;;;;;;;;;;;;;;;10.22;100.00;97902.75;5017160;28;19925;-89
2022/03/31 08:07:16;;;;;;;;;;;;;;;10.21;100.00;97904.00;5025608;28;19925;-90
2022/03/31 08:09:42;;;;;;;;;;;;;;;10.17;100.00;97900.69;5030997;28;20143;-88
2022/03/31 08:12:07;;;;;;;;;;;;;;;10.22;100.00;97899.22;5034674;28;19920;-92
2022/03/31 08:14:33;;;;;;;;;;;;;;;10.23;100.00;97904.25;5037647;28;20090;-93
2022/03/31 08:16:58;;;;;;;;;;;;;;;10.24;100.00;97896.72;5031333;28;19939;-90
2022/03/31 08:19:24;;;;;;;;;;;;;;;10.22;100.00;97891.69;5027590;28;19921;-90
2022/03/31 08:21:49;;;;;;;;;;;;;;;10.23;100.00;97890.41;5019503;28;20364;-90
2022/03/31 08:24:15;;;;;;;;;;;;;;;10.20;100.00;97891.38;5016642;28;19927;-90
2022/03/31 08:26:41;;;;;;;;;;;;;;;10.22;100.00;97894.44;5009063;28;19920;-91
2022/03/31 08:29:07;;;;;;;;;;;;;;;10.16;100.00;97879.75;4997815;28;20304;-90
2022/03/31 08:31:34;;;;;;;;;;;;;;;10.16;100.00;97879.75;4997175;28;19917;-91
2022/03/31 08:33:59;;;;;;;;;;;;;;;10.20;100.00;97885.84;5028729;28;19917;-94
2022/03/31 08:36:25;;;;;;;;;;;;;;;10.16;100.00;97871.44;5013731;28;20513;-87
2022/03/31 08:38:50;;;;;;;;;;;;;;;10.23;100.00;97873.06;5001477;28;19925;-90
2022/03/31 08:41:16;;;;;;;;;;;;;;;10.24;100.00;97875.31;5014932;28;19921;-89
2022/03/31 08:43:42;;;;;;;;;;;;;;;10.26;100.00;97883.16;5014959;28;19931;-89
2022/03/31 08:46:09;;;;;;;;;;;;;;;10.24;100.00;97880.84;5032634;28;19921;-88
2022/03/31 08:48:34;;;;;;;;;;;;;;;10.23;100.00;97887.63;4998727;28;20445;-88
2022/03/31 08:50:59;;;;;;;;;;;;;;;10.24;100.00;97886.41;5000951;28;20015;-88
2022/03/31 08:53:25;;;;;;;;;;;;;;;10.25;100.00;97892.72;4982011;28;20393;-88
2022/03/31 08:55:50;;;;;;;;;;;;;;;10.19;100.00;97889.13;5031286;28;19932;-89
2022/03/31 08:58:16;;;;;;;;;;;;;;;10.21;100.00;97879.06;5012644;28;19992;-88
2022/03/31 09:00:41;;;;;;;;;;;;;;;10.21;100.00;97870.75;5031756;28;19918;-90
2022/03/31 09:03:07;;;;;;;;;;;;;;;10.21;100.00;97864.44;4997085;28;19925;-89
2022/03/31 09:05:41;;;;;;;;;;;;;;;10.25;100.00;97849.13;5005260;28;20673;-89
2022/03/31 09:08:09;;;;;;;;;;;;;;;10.15;100.00;97847.75;5033785;28;19923;-89
2022/03/31 09:10:40;;;;;;;;;;;;;;;10.19;100.00;97842.75;5055435;28;19916;-88
2022/03/31 09:13:17;;;;;;;;;;;;;;;10.18;100.00;97838.50;5037069;28;20371;-88
2022/03/31 09:15:46;;;;;;;;;;;;;;;10.19;100.00;97840.00;5054125;28;20298;-88
2022/03/31 09:18:12;;;;;;;;;;;;;;;10.22;100.00;97839.03;5036895;28;19921;-88
2022/03/31 09:20:38;;;;;;;;;;;;;;;10.27;100.00;97837.59;5041210;28;19920;-88
2022/03/31 09:23:04;;;;;;;;;;;;;;;10.32;100.00;97836.84;5017483;28;19975;-88
2022/03/31 09:25:29;;;;;;;;;;;;;;;10.41;100.00;97827.63;5033491;28;19960;-88
2022/03/31 09:27:56;;;;;;;;;;;;;;;10.48;100.00;97832.72;5000912;28;19943;-89
2022/03/31 09:30:23;;;;;;;;;;;;;;;10.52;100.00;97838.81;5034022;28;20291;-89
2022/03/31 09:32:49;;;;;;;;;;;;;;;10.50;100.00;97830.25;5017765;28;19928;-88
2022/03/31 09:35:18;;;;;;;;;;;;;;;10.45;100.00;97836.47;5016532;28;19924;-89
2022/03/31 09:37:44;;;;;;;;;;;;;;;10.45;100.00;97844.78;5017866;28;19921;-89
2022/03/31 09:40:09;;;;;;;;;;;;;;;10.41;100.00;97827.63;5017293;28;19975;-90
2022/03/31 09:42:35;;;;;;;;;;;;;;;10.41;100.00;97822.84;5016864;28;19960;-89
2022/03/31 09:45:00;;;;;;;;;;;;;;;10.44;100.00;97821.09;5017086;28;19956;-90
2022/03/31 09:47:26;;;;;;;;;;;;;;;10.49;100.00;97818.38;5016576;28;19920;-90
2022/03/31 09:49:52;;;;;;;;;;;;;;;10.52;100.00;97808.31;5015695;28;19920;-89
2022/03/31 09:52:19;;;;;;;;;;;;;;;10.56;100.00;97806.09;5016986;28;19921;-89
2022/03/31 09:54:44;;;;;;;;;;;;;;;10.57;100.00;97807.63;5050735;28;20376;-88
2022/03/31 09:57:10;;;;;;;;;;;;;;;10.55;100.00;97797.03;5016972;28;19921;-87
2022/03/31 09:59:40;;;;;;;;;;;;;;;10.51;100.00;97793.72;5032744;28;20398;-88
2022/03/31 10:02:06;;;;;;;;;;;;;;;10.56;100.00;97783.91;5017215;28;19928;-88
2022/03/31 10:04:31;;;;;;;;;;;;;;;10.60;100.00;97785.22;5030554;28;19929;-87
2022/03/31 10:06:57;;;;;;;;;;;;;;;10.65;100.00;97775.44;5016690;28;20059;-88
2022/03/31 10:09:23;;;;;;;;;;;;;;;10.63;100.00;97777.94;5017056;28;19924;-87
2022/03/31 10:12:09;;;;;;;;;;;;;;;10.63;100.00;97777.94;5025381;28;20110;-88
2022/03/31 10:14:43;;;;;;;;;;;;;;;10.60;100.00;97768.59;5019651;28;20015;-89
2022/03/31 10:17:08;;;;;;;;;;;;;;;10.62;100.00;97762.56;4981453;28;19921;-88
2022/03/31 10:19:36;;;;;;;;;;;;;;;10.59;100.00;97763.53;5018370;28;19924;-87
2022/03/31 10:22:02;;;;;;;;;;;;;;;10.56;100.00;97745.09;5016847;28;20018;-87
2022/03/31 10:24:44;;;;;;;;;;;;;;;10.52;100.00;97766.75;5032897;28;20019;-87
2022/03/31 10:27:29;;;;;;;;;;;;;;;10.56;100.00;97761.75;5034489;28;19925;-89
2022/03/31 10:29:55;;;;;;;;;;;;;;;10.59;100.00;97766.31;4997167;28;20350;-88
2022/03/31 10:32:24;;;;;;;;;;;;;;;10.62;100.00;97748.69;5018790;28;19917;-87
2022/03/31 10:34:49;;;;;;;;;;;;;;;10.66;100.00;97752.00;5013226;28;19925;-92
2022/03/31 10:37:17;;;;;;;;;;;;;;;10.74;100.00;97750.31;5054604;28;19961;-90
2022/03/31 10:39:53;;;;;;;;;;;;;;;10.82;100.00;97751.38;5038378;28;19921;-88
2022/03/31 10:42:18;;;;;;;;;;;;;;;10.85;100.00;97750.38;5039978;28;20281;-86
2022/03/31 10:44:44;;;;;;;;;;;;;;;10.89;100.00;97748.13;5049382;28;19915;-88
2022/03/31 10:47:09;;;;;;;;;;;;;;;10.94;100.00;97752.97;5019002;28;19932;-84
2022/03/31 10:49:35;;;;;;;;;;;;;;;10.96;100.00;97744.16;5039680;28;19967;-89
2022/03/31 10:52:11;;;;;;;;;;;;;;;10.96;100.00;97750.44;4999650;28;20331;-84
2022/03/31 10:54:36;;;;;;;;;;;;;;;10.84;100.00;97737.75;5000839;28;19921;-86
2022/03/31 10:57:09;;;;;;;;;;;;;;;10.85;100.00;97733.72;5029896;28;19940;-87
2022/03/31 10:59:35;;;;;;;;;;;;;;;10.82;100.00;97729.19;4996283;28;19979;-87
2022/03/31 11:02:14;;;;;;;;;;;;;;;10.82;100.00;97723.63;5019303;28;19933;-86
2022/03/31 11:04:45;;;;;;;;;;;;;;;10.82;100.00;97731.97;5020972;28;19929;-86
2022/03/31 11:07:15;;;;;;;;;;;;;;;10.84;100.00;97721.13;5055172;28;19960;-87
2022/03/31 11:09:42;;;;;;;;;;;;;;;10.86;100.00;97718.63;5007431;28;19978;-87
2022/03/31 11:12:08;;;;;;;;;;;;;;;10.89;100.00;97706.53;5013056;28;19921;-86
2022/03/31 11:14:33;;;;;;;;;;;;;;;10.88;100.00;97693.19;4999043;28;20012;-87
2022/03/31 11:16:59;;;;;;;;;;;;;;;10.89;100.00;97684.34;5022658;28;19931;-86
2022/03/31 11:19:34;;;;;;;;;;;;;;;10.95;100.00;97687.16;5023722;28;19948;-87
2022/03/31 11:21:59;;;;;;;;;;;;;;;10.96;100.00;97677.59;5025008;28;19932;-87
2022/03/31 11:24:24;;;;;;;;;;;;;;;10.98;100.00;97670.28;5007090;28;19921;-88
2022/03/31 11:26:50;;;;;;;;;;;;;;;10.99;100.00;97671.03;5008251;28;19928;-88
2022/03/31 11:29:17;;;;;;;;;;;;;;;11.03;100.00;97671.56;5008392;28;19997;-87
2022/03/31 11:31:46;;;;;;;;;;;;;;;11.06;100.00;97671.31;5025031;28;19924;-88
2022/03/31 11:34:22;;;;;;;;;;;;;;;11.08;100.00;97657.69;5027739;28;19924;-87
2022/03/31 11:36:47;;;;;;;;;;;;;;;11.11;100.00;97662.28;5005633;28;19985;-88
2022/03/31 11:39:13;;;;;;;;;;;;;;;11.07;100.00;97656.22;5029643;28;19926;-87
2022/03/31 11:41:39;;;;;;;;;;;;;;;11.12;100.00;97661.00;5013024;28;19927;-87
2022/03/31 11:44:07;;;;;;;;;;;;;;;11.12;100.00;97661.00;5014428;28;19917;-88
2022/03/31 11:46:42;;;;;;;;;;;;;;;11.10;100.00;97657.97;4999915;28;19925;-88
2022/03/31 11:49:15;;;;;;;;;;;;;;;11.15;100.00;97657.25;5032147;28;19921;-88
2022/03/31 11:51:40;;;;;;;;;;;;;;;11.13;100.00;97654.19;5030305;28;20445;-88
2022/03/31 11:54:08;;;;;;;;;;;;;;;11.12;100.00;97646.41;5031293;28;19920;-88
2022/03/31 11:56:34;;;;;;;;;;;;;;;11.15;100.00;97646.16;5034048;28;20293;-87
2022/03/31 11:58:59;;;;;;;;;;;;;;;11.16;100.00;97647.66;5013606;28;19921;-87
2022/03/31 12:01:37;;;;;;;;;;;;;;;11.17;100.00;97643.63;5010893;28;20381;-88
2022/03/31 12:04:02;;;;;;;;;;;;;;;11.18;100.00;97634.03;5018288;28;19932;-87
2022/03/31 12:06:30;;;;;;;;;;;;;;;11.18;100.00;97634.03;5028665;28;19921;-88
2022/03/31 12:08:56;;;;;;;;;;;;;;;11.14;100.00;97633.53;5031980;28;19921;-87
2022/03/31 12:11:21;;;;;;;;;;;;;;;11.15;100.00;97629.50;5033524;28;19931;-87
2022/03/31 12:13:48;;;;;;;;;;;;;;;11.15;100.00;97618.41;5025553;28;19917;-87
2022/03/31 12:16:13;;;;;;;;;;;;;;;11.16;100.00;97619.91;5034163;28;19963;-88
2022/03/31 12:18:40;;;;;;;;;;;;;;;11.17;100.00;97609.56;5043883;28;19972;-88
2022/03/31 12:21:06;;;;;;;;;;;;;;;11.18;100.00;97622.19;5036104;28;20443;-88
2022/03/31 12:23:32;;;;;;;;;;;;;;;11.22;100.00;97629.03;4997762;28;19929;-88
2022/03/31 12:25:57;;;;;;;;;;;;;;;11.23;100.00;97638.88;5029838;28;20637;-87
2022/03/31 12:28:23;;;;;;;;;;;;;;;11.26;100.00;97628.78;4998118;28;19925;-89
2022/03/31 12:30:49;;;;;;;;;;;;;;;11.29;100.00;97629.78;5026571;28;19921;-88
2022/03/31 12:33:35;;;;;;;;;;;;;;;11.30;100.00;97622.97;5029733;28;19925;-87
2022/03/31 12:36:02;;;;;;;;;;;;;;;11.29;100.00;97615.91;5034163;28;19924;-87
2022/03/31 12:38:35;;;;;;;;;;;;;;;11.32;100.00;97603.81;5018200;28;20003;-88
2022/03/31 12:41:00;;;;;;;;;;;;;;;11.30;100.00;97606.34;5031863;28;19917;-87
2022/03/31 12:43:26;;;;;;;;;;;;;;;11.37;100.00;97594.72;5047756;28;19921;-87